Sousse, Tunisia
Current Conditions -  °F | °C
As of 3:30 PM on Thursday 18 Dec 2014 (Local Time) from DTMB Reporting Station
Light Rain Light Rain  
Wind Chill: 59°   Ceiling: Unl
Heat Index: 59°   Visibility: 6mi
Dew Point: 52°   Wind: 12mph
Humidity: 77%   Direction: 240°WSW
Pressure: 30.09"   Gusts: NA
Location:  35.82°N, 10.63°E
Report Text: DTMB 181430Z 24010KT 9999 -RA FEW020 SCT030 15/11 Q1019
Loading
Personal Weather Stations






























Interactive Weather Map New forecast layout! Learn more

10-Day Weather Forecast

Advertisements
Track Severe Weather on mobile